Time;durP1;ratioP1;P1;durP2;ratioP2;P2;SDS_P1;SDS_P2;PMS_P1;PMS_P2;Temp;Humidity;BMP_temperature;BMP_pressure;BME280_temperature;BME280_humidity;BME280_pressure;Samples;Min_cycle;Max_cycle;Signal;HPM_P1;HPM_P2
2021/07/24 00:00:39;;;;;;;39.67;6.43;;;;;;;;;;5027571;28;20029;-64
2021/07/24 00:03:06;;;;;;;37.57;5.93;;;;;;;;;;5027192;28;20060;-64
2021/07/24 00:05:33;;;;;;;33.60;5.63;;;;;;;;;;5031732;28;20060;-64
2021/07/24 00:07:59;;;;;;;31.80;4.90;;;;;;;;;;5032316;28;20022;-64
2021/07/24 00:10:26;;;;;;;31.53;5.97;;;;;;;;;;5032440;28;20048;-64
2021/07/24 00:12:53;;;;;;;38.27;5.27;;;;;;;;;;5032213;28;20484;-64
2021/07/24 00:15:20;;;;;;;21.90;3.90;;;;;;;;;;5031361;28;20056;-64
2021/07/24 00:17:47;;;;;;;23.90;4.40;;;;;;;;;;5026910;28;20544;-64
2021/07/24 00:20:13;;;;;;;30.27;5.73;;;;;;;;;;5027477;28;20470;-65
2021/07/24 00:22:40;;;;;;;33.00;5.40;;;;;;;;;;5027113;28;20391;-65
2021/07/24 00:25:07;;;;;;;23.97;4.53;;;;;;;;;;5027353;28;20430;-64
2021/07/24 00:27:34;;;;;;;39.60;6.03;;;;;;;;;;5030878;28;20034;-64
2021/07/24 00:30:01;;;;;;;39.30;5.67;;;;;;;;;;5031798;28;20034;-64
2021/07/24 00:32:28;;;;;;;50.63;6.97;;;;;;;;;;5031769;28;20040;-64
2021/07/24 00:34:55;;;;;;;30.40;4.80;;;;;;;;;;5031633;28;20018;-64
2021/07/24 00:37:22;;;;;;;30.67;4.17;;;;;;;;;;5031730;28;20025;-64
2021/07/24 00:39:49;;;;;;;26.17;4.67;;;;;;;;;;5027885;28;20037;-64
2021/07/24 00:42:18;;;;;;;23.10;4.17;;;;;;;;;;5026770;28;20061;-64
2021/07/24 00:44:47;;;;;;;29.40;4.33;;;;;;;;;;5027028;28;20194;-64
2021/07/24 00:47:37;;;;;;;35.63;5.30;;;;;;;;;;5026627;28;20539;-64
2021/07/24 00:50:06;;;;;;;30.97;4.90;;;;;;;;;;5021064;28;20160;-66
2021/07/24 00:52:33;;;;;;;28.73;3.87;;;;;;;;;;5031262;28;20034;-66
2021/07/24 00:55:00;;;;;;;30.83;5.73;;;;;;;;;;5031693;28;20438;-66
2021/07/24 00:57:27;;;;;;;47.07;8.23;;;;;;;;;;5031783;28;20388;-66
2021/07/24 00:59:54;;;;;;;61.47;9.67;;;;;;;;;;5031788;28;20464;-65
2021/07/24 01:02:20;;;;;;;26.40;4.33;;;;;;;;;;5026693;28;20065;-66
2021/07/24 01:04:47;;;;;;;22.03;5.03;;;;;;;;;;5027084;28;20036;-67
2021/07/24 01:07:14;;;;;;;47.83;8.43;;;;;;;;;;5026760;28;20029;-66
2021/07/24 01:09:41;;;;;;;30.93;3.63;;;;;;;;;;5026820;28;20368;-65
2021/07/24 01:12:08;;;;;;;20.23;4.80;;;;;;;;;;5029780;28;20025;-66
2021/07/24 01:14:35;;;;;;;16.80;4.90;;;;;;;;;;5031507;28;20028;-66
2021/07/24 01:17:16;;;;;;;26.57;5.10;;;;;;;;;;5031712;28;20029;-66
2021/07/24 01:19:42;;;;;;;36.13;5.47;;;;;;;;;;5017901;28;20179;-66
2021/07/24 01:22:09;;;;;;;23.57;4.43;;;;;;;;;;5031535;28;20045;-65
2021/07/24 01:24:36;;;;;;;33.50;5.13;;;;;;;;;;5016387;28;20068;-65
2021/07/24 01:27:06;;;;;;;25.27;3.97;;;;;;;;;;5009011;28;20077;-66
2021/07/24 01:29:37;;;;;;;41.70;6.33;;;;;;;;;;5010314;28;20101;-66
2021/07/24 01:32:05;;;;;;;31.83;5.57;;;;;;;;;;5014307;28;20076;-66
2021/07/24 01:34:32;;;;;;;27.87;5.67;;;;;;;;;;5033227;28;20414;-65
2021/07/24 01:36:59;;;;;;;30.70;6.83;;;;;;;;;;5034932;28;20483;-65
2021/07/24 01:39:26;;;;;;;26.43;6.23;;;;;;;;;;5035144;28;20025;-66
2021/07/24 01:41:55;;;;;;;41.67;8.00;;;;;;;;;;5034878;28;20051;-66
2021/07/24 01:44:22;;;;;;;40.27;7.70;;;;;;;;;;5034625;28;20040;-65
2021/07/24 01:46:49;;;;;;;32.00;6.47;;;;;;;;;;5030907;28;20500;-65
2021/07/24 01:54:54;;;;;;;32.90;6.97;;;;;;;;;;5029768;28;20459;-65
2021/07/24 01:57:22;;;;;;;23.47;6.00;;;;;;;;;;5033800;28;20080;-65
2021/07/24 01:59:51;;;;;;;33.67;8.60;;;;;;;;;;5034651;28;20033;-65
2021/07/24 02:02:19;;;;;;;31.60;10.17;;;;;;;;;;5034481;28;20032;-65
2021/07/24 02:04:55;;;;;;;36.93;7.03;;;;;;;;;;5034242;28;20029;-65
2021/07/24 02:07:24;;;;;;;30.07;6.47;;;;;;;;;;5034445;28;20025;-66
2021/07/24 02:09:51;;;;;;;32.27;7.77;;;;;;;;;;5029438;28;20144;-66
2021/07/24 02:12:17;;;;;;;26.40;5.70;;;;;;;;;;5029026;28;20057;-65
2021/07/24 02:14:44;;;;;;;35.03;6.50;;;;;;;;;;5029163;28;20022;-66
2021/07/24 02:17:11;;;;;;;35.90;6.07;;;;;;;;;;5029454;28;20101;-65
2021/07/24 02:19:38;;;;;;;32.03;6.63;;;;;;;;;;5033397;28;20026;-63
2021/07/24 02:22:05;;;;;;;32.57;5.23;;;;;;;;;;5033686;28;20468;-63
2021/07/24 02:24:31;;;;;;;25.23;5.63;;;;;;;;;;5033594;28;20068;-63
2021/07/24 02:26:58;;;;;;;24.50;4.47;;;;;;;;;;5033897;28;20026;-63
2021/07/24 02:29:25;;;;;;;22.60;4.47;;;;;;;;;;5033607;28;20025;-63
2021/07/24 02:31:55;;;;;;;25.97;4.80;;;;;;;;;;5029530;28;20021;-63
2021/07/24 02:34:22;;;;;;;27.03;5.23;;;;;;;;;;5028373;28;20025;-63
2021/07/24 02:36:49;;;;;;;35.07;5.77;;;;;;;;;;5028848;28;20091;-63
2021/07/24 02:39:16;;;;;;;26.73;6.43;;;;;;;;;;5028694;28;20028;-63
2021/07/24 02:41:43;;;;;;;24.27;4.43;;;;;;;;;;5031859;28;20030;-62
2021/07/24 02:44:10;;;;;;;30.37;4.53;;;;;;;;;;5033407;28;20092;-62
2021/07/24 02:46:36;;;;;;;26.27;5.07;;;;;;;;;;5033436;28;20411;-63
2021/07/24 02:49:03;;;;;;;21.40;5.10;;;;;;;;;;5033201;28;20077;-62
2021/07/24 02:51:30;;;;;;;28.30;4.43;;;;;;;;;;5032856;28;20037;-62
2021/07/24 02:53:56;;;;;;;39.10;6.90;;;;;;;;;;5030050;28;20025;-62
2021/07/24 02:56:23;;;;;;;33.33;5.93;;;;;;;;;;5028282;28;20037;-63
2021/07/24 02:58:50;;;;;;;34.83;5.43;;;;;;;;;;5016977;28;20044;-63
2021/07/24 03:01:17;;;;;;;31.80;6.13;;;;;;;;;;5028594;28;20462;-63
2021/07/24 03:03:44;;;;;;;30.03;5.47;;;;;;;;;;5030863;28;20126;-63
2021/07/24 03:06:10;;;;;;;32.47;5.40;;;;;;;;;;5032980;28;20388;-63
2021/07/24 03:08:37;;;;;;;29.17;4.27;;;;;;;;;;5033164;28;20447;-64
2021/07/24 03:11:04;;;;;;;19.60;4.33;;;;;;;;;;5033188;28;20026;-62
2021/07/24 03:13:31;;;;;;;23.77;4.40;;;;;;;;;;5032813;28;20514;-63
2021/07/24 03:15:58;;;;;;;24.80;5.47;;;;;;;;;;5030073;28;20026;-62
2021/07/24 03:18:24;;;;;;;25.90;4.63;;;;;;;;;;5028028;28;20499;-63
2021/07/24 03:20:51;;;;;;;33.70;4.90;;;;;;;;;;5027914;28;20491;-63
2021/07/24 03:23:18;;;;;;;35.87;6.23;;;;;;;;;;5027450;28;20087;-62
2021/07/24 03:25:45;;;;;;;41.67;5.80;;;;;;;;;;5029996;28;20072;-63
2021/07/24 03:28:11;;;;;;;27.20;5.30;;;;;;;;;;5031069;28;20053;-65
2021/07/24 03:30:38;;;;;;;56.70;5.53;;;;;;;;;;5023945;28;20190;-63
2021/07/24 03:33:05;;;;;;;26.23;4.83;;;;;;;;;;5025246;28;20056;-63
2021/07/24 03:35:34;;;;;;;32.93;5.50;;;;;;;;;;5031905;28;20496;-63
2021/07/24 03:38:06;;;;;;;31.20;4.87;;;;;;;;;;5027320;28;20448;-63
2021/07/24 03:40:33;;;;;;;35.13;6.03;;;;;;;;;;5016061;28;20443;-63
2021/07/24 03:43:00;;;;;;;36.43;6.67;;;;;;;;;;5007928;28;20045;-61
2021/07/24 03:45:28;;;;;;;29.40;5.50;;;;;;;;;;5012137;28;20030;-63
2021/07/24 03:47:55;;;;;;;27.77;4.67;;;;;;;;;;5028432;28;20021;-63
2021/07/24 03:50:22;;;;;;;30.90;5.93;;;;;;;;;;5032102;28;20111;-63
2021/07/24 03:52:48;;;;;;;26.43;4.43;;;;;;;;;;5027801;28;20156;-60
2021/07/24 03:55:15;;;;;;;32.73;5.67;;;;;;;;;;5029002;28;20041;-63
2021/07/24 03:57:42;;;;;;;39.67;6.37;;;;;;;;;;5031242;28;20052;-64
2021/07/24 04:00:09;;;;;;;28.37;6.40;;;;;;;;;;5014258;28;20030;-62
2021/07/24 04:02:38;;;;;;;31.57;5.03;;;;;;;;;;5006257;28;20033;-62
2021/07/24 04:05:05;;;;;;;32.33;5.43;;;;;;;;;;5006022;28;20034;-62
2021/07/24 04:07:32;;;;;;;20.67;4.47;;;;;;;;;;5012482;28;20022;-62
2021/07/24 04:09:59;;;;;;;26.00;5.60;;;;;;;;;;5007409;28;20022;-62
2021/07/24 04:12:26;;;;;;;39.33;5.37;;;;;;;;;;5027473;28;20490;-63
2021/07/24 04:14:53;;;;;;;19.13;3.53;;;;;;;;;;5030944;28;20026;-62
2021/07/24 04:17:19;;;;;;;25.30;4.93;;;;;;;;;;5031926;28;20428;-62
2021/07/24 04:19:48;;;;;;;19.30;5.37;;;;;;;;;;5032367;28;20018;-62
2021/07/24 04:22:15;;;;;;;23.13;4.90;;;;;;;;;;5022992;28;20107;-62
2021/07/24 04:24:42;;;;;;;16.30;3.70;;;;;;;;;;5026428;28;20494;-62
2021/07/24 04:27:08;;;;;;;16.80;3.87;;;;;;;;;;5017244;28;20033;-62
2021/07/24 04:29:35;;;;;;;29.93;5.23;;;;;;;;;;5018382;28;20036;-62
2021/07/24 04:32:05;;;;;;;21.17;4.67;;;;;;;;;;5014647;28;20034;-62
2021/07/24 04:34:32;;;;;;;31.90;4.57;;;;;;;;;;5012387;28;20068;-62
2021/07/24 04:36:59;;;;;;;26.73;4.00;;;;;;;;;;5016938;28;20026;-63
2021/07/24 04:39:26;;;;;;;30.83;5.53;;;;;;;;;;5020099;28;20026;-62
2021/07/24 04:41:52;;;;;;;28.83;5.10;;;;;;;;;;5022767;28;20029;-62
2021/07/24 04:44:19;;;;;;;28.37;4.70;;;;;;;;;;5031211;28;20048;-62
2021/07/24 04:46:46;;;;;;;30.97;4.27;;;;;;;;;;5025987;28;20092;-62
2021/07/24 04:49:13;;;;;;;21.17;4.20;;;;;;;;;;5026970;28;20021;-61
2021/07/24 04:51:39;;;;;;;22.13;3.97;;;;;;;;;;5017682;28;20044;-62
2021/07/24 04:54:07;;;;;;;27.17;5.93;;;;;;;;;;5007017;28;20022;-62
2021/07/24 04:56:34;;;;;;;24.40;4.93;;;;;;;;;;5011782;28;20105;-62
2021/07/24 04:59:04;;;;;;;28.33;5.27;;;;;;;;;;5027367;28;20030;-64
2021/07/24 05:01:31;;;;;;;32.27;5.43;;;;;;;;;;5033252;28;20431;-61
2021/07/24 05:03:58;;;;;;;25.40;5.27;;;;;;;;;;5035327;28;20028;-62
2021/07/24 05:06:26;;;;;;;29.00;4.77;;;;;;;;;;5034724;28;20026;-62
2021/07/24 05:08:53;;;;;;;21.70;4.70;;;;;;;;;;5010730;28;20029;-61
2021/07/24 05:11:19;;;;;;;19.50;4.63;;;;;;;;;;5010597;28;20101;-64
2021/07/24 05:13:47;;;;;;;23.03;4.60;;;;;;;;;;5010450;28;20025;-61
2021/07/24 05:16:13;;;;;;;22.17;4.73;;;;;;;;;;5010561;28;20057;-62
2021/07/24 05:18:40;;;;;;;23.97;3.87;;;;;;;;;;5016177;28;20026;-61
2021/07/24 05:21:07;;;;;;;30.07;6.30;;;;;;;;;;5015054;28;20034;-62
2021/07/24 05:23:34;;;;;;;23.93;3.80;;;;;;;;;;5024807;28;20044;-62
2021/07/24 05:26:00;;;;;;;23.87;4.93;;;;;;;;;;5035275;28;20030;-61
2021/07/24 05:28:27;;;;;;;22.33;4.67;;;;;;;;;;5023990;28;20045;-61
2021/07/24 05:30:54;;;;;;;24.53;5.60;;;;;;;;;;5010304;28;20037;-61
2021/07/24 05:33:21;;;;;;;18.87;5.23;;;;;;;;;;5010180;28;20272;-61
2021/07/24 05:35:47;;;;;;;25.93;5.33;;;;;;;;;;5010288;28;20037;-61
2021/07/24 05:38:15;;;;;;;24.47;6.17;;;;;;;;;;5010653;28;20029;-61
2021/07/24 05:40:41;;;;;;;22.23;4.37;;;;;;;;;;5013801;28;20034;-62
2021/07/24 05:43:08;;;;;;;28.43;5.03;;;;;;;;;;5015341;28;20120;-61
2021/07/24 05:45:35;;;;;;;21.80;4.43;;;;;;;;;;5015015;28;20472;-61
2021/07/24 05:48:01;;;;;;;20.10;4.73;;;;;;;;;;5021345;28;20057;-61
2021/07/24 05:50:28;;;;;;;22.27;5.37;;;;;;;;;;5014982;28;20030;-61
2021/07/24 05:52:55;;;;;;;30.17;4.43;;;;;;;;;;5010517;28;20038;-61
2021/07/24 05:55:22;;;;;;;22.90;4.27;;;;;;;;;;5009527;28;20469;-62
2021/07/24 05:57:48;;;;;;;16.37;4.03;;;;;;;;;;5016435;28;20065;-61
2021/07/24 06:00:15;;;;;;;27.80;5.10;;;;;;;;;;5009613;28;20049;-61
2021/07/24 06:02:42;;;;;;;29.40;5.03;;;;;;;;;;5012913;28;20038;-61
2021/07/24 06:05:09;;;;;;;18.53;4.80;;;;;;;;;;5023811;28;20032;-61
2021/07/24 06:07:36;;;;;;;24.97;4.80;;;;;;;;;;5033720;28;20035;-61
2021/07/24 06:10:03;;;;;;;21.00;5.17;;;;;;;;;;5015353;28;20018;-61
2021/07/24 06:12:30;;;;;;;21.63;4.53;;;;;;;;;;5014059;28;20076;-61
2021/07/24 06:14:56;;;;;;;18.97;4.37;;;;;;;;;;5017881;28;20117;-61
2021/07/24 06:17:23;;;;;;;17.73;4.70;;;;;;;;;;5029226;28;20022;-61
2021/07/24 06:19:50;;;;;;;24.33;5.40;;;;;;;;;;5029137;28;20079;-61
2021/07/24 06:22:17;;;;;;;24.90;4.90;;;;;;;;;;5027031;28;20029;-61
2021/07/24 06:24:43;;;;;;;21.67;4.20;;;;;;;;;;5016750;28;20135;-61
2021/07/24 06:27:10;;;;;;;17.33;4.03;;;;;;;;;;5033920;28;20029;-61
2021/07/24 06:29:37;;;;;;;23.97;4.40;;;;;;;;;;5034075;28;20411;-61
2021/07/24 06:32:04;;;;;;;20.27;4.13;;;;;;;;;;5033308;28;20033;-61
2021/07/24 06:34:32;;;;;;;21.93;4.13;;;;;;;;;;5032830;28;20020;-61
2021/07/24 06:37:00;;;;;;;18.77;3.73;;;;;;;;;;5030579;28;20535;-61
2021/07/24 06:39:27;;;;;;;20.07;3.43;;;;;;;;;;5026547;28;20034;-62
2021/07/24 06:41:54;;;;;;;24.93;5.87;;;;;;;;;;5028122;28;20026;-61
2021/07/24 06:44:21;;;;;;;23.73;6.13;;;;;;;;;;5028684;28;20361;-61
2021/07/24 06:46:48;;;;;;;27.27;5.03;;;;;;;;;;5013496;28;20064;-61
2021/07/24 06:49:15;;;;;;;21.07;5.57;;;;;;;;;;5013794;28;20033;-61
2021/07/24 06:51:42;;;;;;;23.67;4.53;;;;;;;;;;5013760;28;20117;-61
2021/07/24 06:54:08;;;;;;;19.90;4.27;;;;;;;;;;5013821;28;20041;-61
2021/07/24 06:56:35;;;;;;;18.90;4.27;;;;;;;;;;5028513;28;20036;-61
2021/07/24 06:59:02;;;;;;;28.30;6.20;;;;;;;;;;5030563;28;20026;-61
2021/07/24 07:01:29;;;;;;;22.33;5.37;;;;;;;;;;5010379;28;20375;-61
2021/07/24 07:03:55;;;;;;;17.87;4.43;;;;;;;;;;5028190;28;20484;-61
2021/07/24 07:06:22;;;;;;;19.27;5.90;;;;;;;;;;5014312;28;20113;-61
2021/07/24 07:08:49;;;;;;;30.23;5.77;;;;;;;;;;5015201;28;20021;-63
2021/07/24 07:11:16;;;;;;;14.07;4.03;;;;;;;;;;5028175;28;20028;-63
2021/07/24 07:13:42;;;;;;;18.63;4.60;;;;;;;;;;5013219;28;20034;-61
2021/07/24 07:16:10;;;;;;;16.50;3.90;;;;;;;;;;5024226;28;20040;-61
2021/07/24 07:18:39;;;;;;;18.37;3.63;;;;;;;;;;5032736;28;20032;-61
2021/07/24 07:21:08;;;;;;;15.17;4.07;;;;;;;;;;5031015;28;20053;-62
2021/07/24 07:23:35;;;;;;;19.13;4.40;;;;;;;;;;5026751;28;20063;-61
2021/07/24 07:26:02;;;;;;;19.33;5.03;;;;;;;;;;5017567;28;20030;-61
2021/07/24 07:28:29;;;;;;;24.30;4.60;;;;;;;;;;5008188;28;20453;-61
2021/07/24 07:30:56;;;;;;;19.03;4.63;;;;;;;;;;5009007;28;20026;-61
2021/07/24 07:33:22;;;;;;;27.90;4.67;;;;;;;;;;5012558;28;20116;-62
2021/07/24 07:35:49;;;;;;;16.80;4.40;;;;;;;;;;5014154;28;20037;-61
2021/07/24 07:38:17;;;;;;;19.87;5.33;;;;;;;;;;5013005;28;20053;-61
2021/07/24 07:40:43;;;;;;;30.47;6.07;;;;;;;;;;5022427;28;20021;-60
2021/07/24 07:43:11;;;;;;;21.77;5.43;;;;;;;;;;5024170;28;20037;-61
2021/07/24 07:45:40;;;;;;;21.30;6.50;;;;;;;;;;5013745;28;20025;-61
2021/07/24 07:48:07;;;;;;;29.30;5.60;;;;;;;;;;5027419;28;20022;-61
2021/07/24 07:50:33;;;;;;;29.30;5.50;;;;;;;;;;5027318;28;20096;-61
2021/07/24 07:53:00;;;;;;;21.03;5.17;;;;;;;;;;5013937;28;20077;-60
2021/07/24 07:55:27;;;;;;;23.30;5.23;;;;;;;;;;5017017;28;20040;-61
2021/07/24 07:57:54;;;;;;;25.33;4.60;;;;;;;;;;5032280;28;20022;-60
2021/07/24 08:00:21;;;;;;;16.87;3.83;;;;;;;;;;5032182;28;20096;-61
2021/07/24 08:02:51;;;;;;;19.20;4.30;;;;;;;;;;5031994;28;20041;-61
2021/07/24 08:05:18;;;;;;;24.77;4.20;;;;;;;;;;5026985;28;20034;-61
2021/07/24 08:07:45;;;;;;;20.47;4.93;;;;;;;;;;5018394;28;20638;-61
2021/07/24 08:10:12;;;;;;;24.70;5.07;;;;;;;;;;5026877;28;20380;-61
2021/07/24 08:12:39;;;;;;;26.20;6.60;;;;;;;;;;5027341;28;20522;-61
2021/07/24 08:15:06;;;;;;;26.50;4.37;;;;;;;;;;5020772;28;20404;-61
2021/07/24 08:17:33;;;;;;;12.77;3.97;;;;;;;;;;5021757;28;20086;-60
2021/07/24 08:19:59;;;;;;;10.63;3.40;;;;;;;;;;5031959;28;20100;-61
2021/07/24 08:22:26;;;;;;;16.10;3.80;;;;;;;;;;5031681;28;20025;-60
2021/07/24 08:24:53;;;;;;;27.43;4.97;;;;;;;;;;5032504;28;20120;-63
2021/07/24 08:27:20;;;;;;;22.20;4.50;;;;;;;;;;5023384;28;20033;-61
2021/07/24 08:29:46;;;;;;;26.73;5.97;;;;;;;;;;5007324;28;20088;-60
2021/07/24 08:32:13;;;;;;;14.70;4.27;;;;;;;;;;5022697;28;20057;-60
2021/07/24 08:34:40;;;;;;;23.57;4.20;;;;;;;;;;5026687;28;20468;-60
2021/07/24 08:37:07;;;;;;;25.70;4.37;;;;;;;;;;5024576;28;20044;-60
2021/07/24 08:39:36;;;;;;;22.90;5.57;;;;;;;;;;5016053;28;20028;-60
2021/07/24 08:42:06;;;;;;;22.33;5.57;;;;;;;;;;5016392;28;20034;-63
2021/07/24 08:44:37;;;;;;;16.90;4.03;;;;;;;;;;5016066;28;20060;-60
2021/07/24 08:47:04;;;;;;;27.07;4.70;;;;;;;;;;5023199;28;20493;-60
2021/07/24 08:49:31;;;;;;;26.43;5.10;;;;;;;;;;5015807;28;20480;-60
2021/07/24 08:51:59;;;;;;;24.40;4.87;;;;;;;;;;5015175;28;20033;-61
2021/07/24 08:54:26;;;;;;;19.13;4.10;;;;;;;;;;5030411;28;20064;-60
2021/07/24 08:56:53;;;;;;;22.10;4.93;;;;;;;;;;5027158;28;20037;-61
2021/07/24 08:59:21;;;;;;;21.37;6.20;;;;;;;;;;5010840;28;20022;-61
2021/07/24 09:01:52;;;;;;;18.17;3.67;;;;;;;;;;5019251;28;20128;-60
2021/07/24 09:04:19;;;;;;;14.77;3.70;;;;;;;;;;5035270;28;20048;-61
2021/07/24 09:06:46;;;;;;;22.03;4.47;;;;;;;;;;5033056;28;20025;-60
2021/07/24 09:09:17;;;;;;;13.40;3.83;;;;;;;;;;5015773;28;20045;-61
2021/07/24 09:11:44;;;;;;;20.40;4.30;;;;;;;;;;5015395;28;20298;-60
2021/07/24 09:14:11;;;;;;;20.93;4.67;;;;;;;;;;5010881;28;20435;-61
2021/07/24 09:16:39;;;;;;;18.27;3.57;;;;;;;;;;5012371;28;20675;-61
2021/07/24 09:19:06;;;;;;;12.33;3.73;;;;;;;;;;5010578;28;20068;-60
2021/07/24 09:21:33;;;;;;;17.87;4.60;;;;;;;;;;5010215;28;20049;-60
2021/07/24 09:24:18;;;;;;;16.67;3.87;;;;;;;;;;5015018;28;20749;-61
2021/07/24 09:26:45;;;;;;;19.10;3.88;;;;;;;;;;5016203;28;20263;-61
2021/07/24 09:29:14;;;;;;;16.13;5.00;;;;;;;;;;5035077;28;20022;-61
2021/07/24 09:31:42;;;;;;;15.13;3.33;;;;;;;;;;5031760;28;20291;-60
2021/07/24 09:34:13;;;;;;;21.23;4.57;;;;;;;;;;5014963;28;20978;-61
2021/07/24 09:36:40;;;;;;;14.70;3.23;;;;;;;;;;5012805;28;20266;-61
2021/07/24 09:39:11;;;;;;;23.57;3.80;;;;;;;;;;5010047;28;20338;-60
2021/07/24 09:41:39;;;;;;;17.70;3.53;;;;;;;;;;5010047;28;20263;-60
2021/07/24 09:44:06;;;;;;;23.83;4.00;;;;;;;;;;5009715;28;20374;-60
2021/07/24 09:46:33;;;;;;;18.00;4.03;;;;;;;;;;5015598;28;20342;-60
2021/07/24 09:49:10;;;;;;;14.97;4.13;;;;;;;;;;5015236;28;20316;-61
2021/07/24 09:51:41;;;;;;;9.97;3.00;;;;;;;;;;5016896;28;20780;-60
2021/07/24 09:54:22;;;;;;;14.07;2.70;;;;;;;;;;5034617;28;20350;-60
2021/07/24 09:56:50;;;;;;;12.60;3.73;;;;;;;;;;5032946;28;20346;-60
2021/07/24 09:59:22;;;;;;;12.67;3.13;;;;;;;;;;5010033;28;20272;-61
2021/07/24 10:01:55;;;;;;;22.70;4.17;;;;;;;;;;5009614;28;20626;-60
2021/07/24 10:04:29;;;;;;;20.97;4.57;;;;;;;;;;5009223;28;20322;-60
2021/07/24 10:06:58;;;;;;;16.60;3.83;;;;;;;;;;5010071;28;20658;-60
2021/07/24 10:09:28;;;;;;;14.33;3.33;;;;;;;;;;5014537;28;20738;-60
2021/07/24 10:11:55;;;;;;;18.00;3.43;;;;;;;;;;5018964;28;20255;-60
2021/07/24 10:14:22;;;;;;;12.20;2.80;;;;;;;;;;5034388;28;20309;-60
2021/07/24 10:16:52;;;;;;;27.00;4.57;;;;;;;;;;5034045;28;20350;-60
2021/07/24 10:19:20;;;;;;;14.93;4.03;;;;;;;;;;5023761;28;20662;-61
2021/07/24 10:21:47;;;;;;;16.50;3.37;;;;;;;;;;5011504;28;20748;-60
2021/07/24 10:24:15;;;;;;;11.73;3.07;;;;;;;;;;5028853;28;20291;-61
2021/07/24 10:26:49;;;;;;;10.20;3.20;;;;;;;;;;5028524;28;20660;-60
2021/07/24 10:29:18;;;;;;;14.10;3.20;;;;;;;;;;5030034;28;20357;-60
2021/07/24 10:31:47;;;;;;;15.03;3.57;;;;;;;;;;5031586;28;20312;-60
2021/07/24 10:34:15;;;;;;;14.17;3.73;;;;;;;;;;5013779;28;20282;-60
2021/07/24 10:36:43;;;;;;;15.87;3.20;;;;;;;;;;5013884;28;20279;-61
2021/07/24 10:39:18;;;;;;;17.57;3.77;;;;;;;;;;5013881;28;20275;-60
2021/07/24 10:41:46;;;;;;;22.47;3.80;;;;;;;;;;5013396;28;20291;-60
2021/07/24 10:44:14;;;;;;;16.33;2.97;;;;;;;;;;5028432;28;20717;-61
2021/07/24 10:46:41;;;;;;;17.03;3.27;;;;;;;;;;5011792;28;20866;-60
2021/07/24 10:49:08;;;;;;;15.13;2.73;;;;;;;;;;5008801;28;20259;-60
2021/07/24 10:52:08;;;;;;;12.10;3.10;;;;;;;;;;5028759;28;20666;-60
2021/07/24 10:54:54;;;;;;;14.60;3.00;;;;;;;;;;4989984;28;20586;-60
2021/07/24 10:57:39;;;;;;;11.07;2.97;;;;;;;;;;5013606;28;20271;-60
2021/07/24 11:00:30;;;;;;;19.13;3.40;;;;;;;;;;5013788;28;20325;-60
2021/07/24 11:02:56;;;;;;;8.80;2.23;;;;;;;;;;5001296;28;20042;-60
2021/07/24 11:05:27;;;;;;;16.20;3.20;;;;;;;;;;5012140;28;20350;-60
2021/07/24 11:07:54;;;;;;;11.87;3.00;;;;;;;;;;5027209;28;20258;-60
2021/07/24 11:10:21;;;;;;;13.67;3.37;;;;;;;;;;5009237;28;20334;-60
2021/07/24 11:12:48;;;;;;;17.53;3.33;;;;;;;;;;5007788;28;20691;-60
2021/07/24 11:15:19;;;;;;;15.20;3.27;;;;;;;;;;5015282;28;20259;-60
2021/07/24 11:18:06;;;;;;;16.67;4.50;;;;;;;;;;5033087;28;20258;-60
2021/07/24 11:20:46;;;;;;;21.57;3.30;;;;;;;;;;5032916;28;20253;-60
2021/07/24 11:23:13;;;;;;;11.53;3.07;;;;;;;;;;5013366;28;20374;-60
2021/07/24 11:25:40;;;;;;;18.77;3.50;;;;;;;;;;5018338;28;20262;-61
2021/07/24 11:28:08;;;;;;;23.37;3.37;;;;;;;;;;5027080;28;20266;-60
2021/07/24 11:30:35;;;;;;;13.03;3.30;;;;;;;;;;5027733;28;20263;-60
2021/07/24 11:33:02;;;;;;;15.63;2.97;;;;;;;;;;5027359;28;20261;-61
2021/07/24 11:35:30;;;;;;;20.93;3.93;;;;;;;;;;5013045;28;20780;-60
2021/07/24 11:37:58;;;;;;;14.87;4.03;;;;;;;;;;5032359;28;20258;-60
2021/07/24 11:40:26;;;;;;;14.03;3.40;;;;;;;;;;5032241;28;20652;-60
2021/07/24 11:43:00;;;;;;;21.17;3.40;;;;;;;;;;5032288;28;20267;-60
2021/07/24 11:45:28;;;;;;;14.73;3.93;;;;;;;;;;5027868;28;20367;-60
2021/07/24 11:48:07;;;;;;;12.23;3.10;;;;;;;;;;5011797;28;20776;-60
2021/07/24 11:50:34;;;;;;;18.40;4.03;;;;;;;;;;5007623;28;20275;-60
2021/07/24 11:53:01;;;;;;;12.60;4.27;;;;;;;;;;5013199;28;20266;-60
2021/07/24 11:55:29;;;;;;;14.53;3.57;;;;;;;;;;5023271;28;20278;-60
2021/07/24 11:58:06;;;;;;;15.73;3.43;;;;;;;;;;5008271;28;20295;-60
2021/07/24 12:00:34;;;;;;;15.47;3.80;;;;;;;;;;5017002;28;20287;-60
2021/07/24 12:03:13;;;;;;;18.47;3.10;;;;;;;;;;5012426;28;20323;-60
2021/07/24 12:05:40;;;;;;;13.47;3.00;;;;;;;;;;5016976;28;20294;-60
2021/07/24 12:08:08;;;;;;;23.47;4.33;;;;;;;;;;5031414;28;20610;-60
2021/07/24 12:10:36;;;;;;;19.37;3.07;;;;;;;;;;5029144;28;20266;-60
2021/07/24 12:13:03;;;;;;;16.17;3.67;;;;;;;;;;5026903;28;20737;-60
2021/07/24 12:15:48;;;;;;;12.03;4.20;;;;;;;;;;5023403;28;20330;-60
2021/07/24 12:18:19;;;;;;;12.55;4.30;;;;;;;;;;5007558;28;20255;-60
2021/07/24 12:20:45;;;;;;;18.70;4.30;;;;;;;;;;5009233;28;20026;-59
2021/07/24 12:23:19;;;;;;;11.73;3.40;;;;;;;;;;5024544;28;20286;-60
2021/07/24 12:25:46;;;;;;;12.40;3.30;;;;;;;;;;5015786;28;20628;-60
2021/07/24 12:28:29;;;;;;;17.53;3.10;;;;;;;;;;5012297;28;20282;-61
2021/07/24 12:31:15;;;;;;;25.10;4.27;;;;;;;;;;5012506;28;20323;-60
2021/07/24 12:33:49;;;;;;;12.23;3.00;;;;;;;;;;5022483;28;20271;-60
2021/07/24 12:36:17;;;;;;;11.73;3.20;;;;;;;;;;5026922;28;20266;-60
2021/07/24 12:38:43;;;;;;;15.23;3.50;;;;;;;;;;5007311;28;20343;-60
2021/07/24 12:41:10;;;;;;;10.10;3.50;;;;;;;;;;5007167;28;20865;-60
2021/07/24 12:43:39;;;;;;;18.10;4.10;;;;;;;;;;5010287;28;20287;-60
2021/07/24 12:46:12;;;;;;;23.27;4.43;;;;;;;;;;5012330;28;20267;-60
2021/07/24 12:48:47;;;;;;;16.03;3.13;;;;;;;;;;5027795;28;20660;-60
2021/07/24 12:51:16;;;;;;;15.88;4.65;;;;;;;;;;5032148;28;20601;-60
2021/07/24 12:53:50;;;;;;;21.27;4.77;;;;;;;;;;5031616;28;20029;-60
2021/07/24 12:56:20;;;;;;;30.70;5.10;;;;;;;;;;5022526;28;20341;-60
2021/07/24 12:58:47;;;;;;;24.30;5.60;;;;;;;;;;5023371;28;20299;-60
2021/07/24 13:01:15;;;;;;;27.37;5.53;;;;;;;;;;5026847;28;20262;-60
2021/07/24 13:03:43;;;;;;;30.13;5.50;;;;;;;;;;5026068;28;20689;-60
2021/07/24 13:06:12;;;;;;;24.93;5.67;;;;;;;;;;5031025;28;20306;-60
2021/07/24 13:08:39;;;;;;;31.30;6.00;;;;;;;;;;5015496;28;20267;-60
2021/07/24 13:11:08;;;;;;;32.30;6.73;;;;;;;;;;5011720;28;20271;-61
2021/07/24 13:13:35;;;;;;;38.87;7.27;;;;;;;;;;5011998;28;20255;-60
2021/07/24 13:16:02;;;;;;;26.43;5.53;;;;;;;;;;5012131;28;20267;-60
2021/07/24 13:18:29;;;;;;;23.93;4.60;;;;;;;;;;5020392;28;20286;-60
2021/07/24 13:20:57;;;;;;;19.27;5.20;;;;;;;;;;5026687;28;20345;-61
2021/07/24 13:23:24;;;;;;;29.10;5.63;;;;;;;;;;5028386;28;20295;-61
2021/07/24 13:26:05;;;;;;;27.97;5.70;;;;;;;;;;5030097;28;20294;-60
2021/07/24 13:28:31;;;;;;;40.73;6.40;;;;;;;;;;5017481;28;20433;-60
2021/07/24 13:30:58;;;;;;;34.67;5.93;;;;;;;;;;5015462;28;20446;-61
2021/07/24 13:33:28;;;;;;;21.23;5.47;;;;;;;;;;5015324;28;20026;-62
2021/07/24 13:35:55;;;;;;;26.10;6.37;;;;;;;;;;5015009;28;20378;-61
2021/07/24 13:38:22;;;;;;;31.00;6.20;;;;;;;;;;5026783;28;20029;-61
2021/07/24 13:40:49;;;;;;;34.13;5.27;;;;;;;;;;5029544;28;20831;-61
2021/07/24 13:43:16;;;;;;;32.87;6.23;;;;;;;;;;5028960;28;20045;-61
2021/07/24 13:45:42;;;;;;;29.67;7.23;;;;;;;;;;5029478;28;20078;-61
2021/07/24 13:48:09;;;;;;;36.60;7.30;;;;;;;;;;5018975;28;20034;-61
2021/07/24 13:50:36;;;;;;;35.77;6.70;;;;;;;;;;5014083;28;20160;-62
2021/07/24 13:53:03;;;;;;;32.80;6.17;;;;;;;;;;5014736;28;20030;-61
2021/07/24 13:55:29;;;;;;;40.73;8.93;;;;;;;;;;5014742;28;20057;-62
2021/07/24 13:57:56;;;;;;;34.80;6.23;;;;;;;;;;5022870;28;20148;-63
2021/07/24 14:00:23;;;;;;;28.10;6.10;;;;;;;;;;5017330;28;20029;-61
2021/07/24 14:02:50;;;;;;;21.37;5.57;;;;;;;;;;5009933;28;20026;-62
2021/07/24 14:05:16;;;;;;;43.03;6.00;;;;;;;;;;5025778;28;20029;-62
2021/07/24 14:07:43;;;;;;;26.97;5.97;;;;;;;;;;5027248;28;20033;-62
2021/07/24 14:10:10;;;;;;;24.73;5.83;;;;;;;;;;5028721;28;20384;-62
2021/07/24 14:12:37;;;;;;;35.30;6.50;;;;;;;;;;5033115;28;20032;-62
2021/07/24 14:15:04;;;;;;;30.17;6.13;;;;;;;;;;5034088;28;20108;-62
2021/07/24 14:17:31;;;;;;;27.10;5.90;;;;;;;;;;5018429;28;20038;-62
2021/07/24 14:19:58;;;;;;;29.93;7.10;;;;;;;;;;5014118;28;20084;-62
2021/07/24 14:22:25;;;;;;;26.27;5.80;;;;;;;;;;5014427;28;20101;-62
2021/07/24 14:24:51;;;;;;;23.27;5.10;;;;;;;;;;5009906;28;20033;-63
2021/07/24 14:27:18;;;;;;;26.13;6.17;;;;;;;;;;5022253;28;20033;-62
2021/07/24 14:29:45;;;;;;;24.87;4.50;;;;;;;;;;5028982;28;20032;-63
2021/07/24 14:32:12;;;;;;;20.47;5.80;;;;;;;;;;5028459;28;20037;-63
2021/07/24 14:34:38;;;;;;;30.10;6.40;;;;;;;;;;5031689;28;20029;-63
2021/07/24 14:37:05;;;;;;;32.37;5.77;;;;;;;;;;5028000;28;20030;-63
2021/07/24 14:39:32;;;;;;;27.60;5.83;;;;;;;;;;5022989;28;20091;-63
2021/07/24 14:41:59;;;;;;;31.47;5.83;;;;;;;;;;5013771;28;20036;-63